Candiac, Canada
Current Conditions -  °F | °C
As of 1:00 PM on Thursday 30 Oct 2014 (Local Time) from CYHU Reporting Station
Broken Clouds Broken Clouds  
Wind Chill: 44°   Ceiling: 3300
Heat Index: 48°   Visibility: 9mi
Dew Point: 32°   Wind: 9mph
Humidity: 54%   Direction: 260°W
Pressure: 29.96"   Gusts: NA
Location:  45.38°N, 73.52°W
Report Text: CYHU 301700Z AUTO 26008KT 9SM BKN033 09/00 A2996 RMK SLP147
Loading
Personal Weather Stations






























Interactive Weather Map
Tropical Storm Tracking
New forecast layout! Learn more

10-Day Weather Forecast

Advertisements
Track Severe Weather on mobile